createdAt,value
2019-04-05T00:02:42.341Z,6.80
2019-04-05T00:06:50.772Z,6.53
2019-04-05T00:10:59.305Z,6.73
2019-04-05T00:15:15.014Z,6.60
2019-04-05T00:19:18.598Z,7.53
2019-04-05T00:23:27.070Z,6.87
2019-04-05T00:27:35.545Z,8.07
2019-04-05T00:31:44.016Z,7.93
2019-04-05T00:35:52.475Z,7.23
2019-04-05T00:40:00.927Z,7.83
2019-04-05T00:44:09.409Z,7.60
2019-04-05T00:48:17.871Z,7.83
2019-04-05T00:52:26.342Z,8.87
2019-04-05T00:56:34.812Z,8.40
2019-04-05T01:00:43.278Z,8.23
2019-04-05T01:04:51.749Z,8.33
2019-04-05T01:09:00.206Z,8.73
2019-04-05T01:13:08.701Z,8.57
2019-04-05T01:17:24.852Z,9.30
2019-04-05T01:21:30.771Z,8.60
2019-04-05T01:25:40.274Z,8.53
2019-04-05T01:29:49.076Z,8.60
2019-04-05T01:33:57.519Z,8.43
2019-04-05T01:38:06.004Z,9.00
2019-04-05T01:42:14.439Z,9.60
2019-04-05T01:46:22.929Z,7.90
2019-04-05T01:50:31.440Z,8.17
2019-04-05T01:54:39.944Z,8.60
2019-04-05T01:58:48.376Z,10.23
2019-04-05T02:02:56.972Z,11.70
2019-04-05T02:07:05.438Z,9.30
2019-04-05T02:11:14.051Z,8.93
2019-04-05T02:15:28.421Z,10.10
2019-04-05T02:19:36.854Z,11.07
2019-04-05T02:23:45.332Z,10.10
2019-04-05T02:27:53.799Z,9.53
2019-04-05T02:32:02.353Z,10.13
2019-04-05T02:36:10.784Z,11.20
2019-04-05T02:40:19.389Z,9.93
2019-04-05T02:44:28.985Z,10.83
2019-04-05T02:48:39.868Z,10.57
2019-04-05T02:52:51.764Z,11.00
2019-04-05T02:57:01.347Z,12.37
2019-04-05T03:01:10.211Z,12.30
2019-04-05T03:05:20.688Z,11.90
2019-04-05T03:09:29.603Z,10.87
2019-04-05T03:13:46.839Z,12.13
2019-04-05T03:17:55.281Z,11.93
2019-04-05T03:22:06.777Z,12.00
2019-04-05T03:26:18.439Z,12.60
2019-04-05T03:30:27.026Z,11.33
2019-04-05T03:34:36.331Z,12.63
2019-04-05T03:38:46.092Z,12.60
2019-04-05T03:42:54.610Z,11.30
2019-04-05T03:47:03.317Z,11.80
2019-04-05T03:51:12.137Z,11.90
2019-04-05T03:55:20.761Z,12.27
2019-04-05T03:59:29.282Z,12.50
2019-04-05T04:03:37.854Z,12.20
2019-04-05T04:07:46.360Z,12.87
2019-04-05T04:11:55.072Z,13.30
2019-04-05T04:16:03.681Z,12.77
2019-04-05T04:20:30.245Z,13.10
2019-04-05T04:24:39.037Z,14.40
2019-04-05T04:28:47.760Z,14.77
2019-04-05T04:32:56.639Z,14.13
2019-04-05T04:37:05.190Z,15.00
2019-04-05T04:41:13.651Z,13.20
2019-04-05T04:45:23.270Z,13.30
2019-04-05T04:49:32.266Z,13.53
2019-04-05T04:53:41.120Z,13.80
2019-04-05T04:57:49.663Z,14.10
2019-04-05T05:01:58.150Z,11.90
2019-04-05T05:06:06.962Z,13.70
2019-04-05T05:10:15.511Z,14.00
2019-04-05T05:14:24.247Z,13.83
2019-04-05T05:18:32.779Z,13.23
2019-04-05T05:22:41.593Z,14.40
2019-04-05T05:26:50.578Z,12.90
2019-04-05T05:30:59.291Z,14.80
2019-04-05T05:35:09.486Z,13.07
2019-04-05T05:39:17.947Z,13.20
2019-04-05T05:43:26.404Z,13.10
2019-04-05T05:47:35.555Z,13.87
2019-04-05T05:51:45.131Z,13.20
2019-04-05T05:55:53.867Z,12.40
2019-04-05T06:00:02.352Z,13.43
2019-04-05T06:04:12.758Z,12.90
2019-04-05T06:08:21.020Z,14.57
2019-04-05T06:12:29.554Z,13.03
2019-04-05T06:16:46.401Z,16.90
2019-04-05T06:20:48.475Z,12.87
2019-04-05T06:24:57.333Z,14.00
2019-04-05T06:29:05.819Z,15.20
2019-04-05T06:33:14.295Z,13.23
2019-04-05T06:37:22.816Z,14.60
2019-04-05T06:41:31.258Z,14.00
2019-04-05T06:45:39.729Z,14.57
2019-04-05T06:49:48.599Z,13.73
2019-04-05T06:53:57.078Z,14.67
2019-04-05T06:58:05.963Z,14.60
2019-04-05T07:02:14.427Z,15.80
2019-04-05T07:06:22.871Z,13.30
2019-04-05T07:10:31.334Z,15.43
2019-04-05T07:14:39.829Z,16.80
2019-04-05T07:18:48.308Z,16.67
2019-04-05T07:22:56.790Z,16.70
2019-04-05T07:27:05.606Z,16.20
2019-04-05T07:31:14.376Z,17.60
2019-04-05T07:35:42.191Z,17.80
2019-04-05T07:39:50.685Z,15.87
2019-04-05T07:43:59.165Z,17.17
2019-04-05T07:48:07.648Z,15.80
2019-04-05T07:52:16.119Z,14.50
2019-04-05T07:56:24.866Z,13.80
2019-04-05T08:00:51.404Z,13.80
2019-04-05T08:04:59.870Z,12.77
2019-04-05T08:09:11.305Z,9.47
2019-04-05T08:13:21.095Z,8.70
2019-04-05T08:17:29.614Z,11.00
2019-04-05T08:21:38.109Z,13.80
2019-04-05T08:25:46.588Z,14.37
2019-04-05T08:29:55.380Z,14.47
2019-04-05T08:34:03.923Z,13.27
2019-04-05T08:38:12.457Z,13.20
2019-04-05T08:42:20.977Z,14.30
2019-04-05T08:46:29.488Z,14.80
2019-04-05T08:50:38.403Z,14.13
2019-04-05T08:54:46.876Z,13.20
2019-04-05T08:58:55.636Z,14.97
2019-04-05T09:03:04.358Z,13.50
2019-04-05T09:07:12.881Z,12.27
2019-04-05T09:11:21.364Z,16.42
2019-04-05T09:15:29.821Z,15.33
2019-04-05T09:19:38.545Z,15.37
2019-04-05T09:23:47.051Z,18.40
2019-04-05T09:27:55.503Z,14.23
2019-04-05T09:32:04.366Z,14.50
2019-04-05T09:36:12.839Z,12.87
2019-04-05T09:40:21.378Z,12.43
2019-04-05T09:44:29.851Z,13.80
2019-04-05T09:48:38.587Z,13.10
2019-04-05T09:52:47.120Z,12.37
2019-04-05T09:56:56.923Z,11.27
2019-04-05T10:01:05.554Z,11.13
2019-04-05T10:05:14.366Z,10.40
2019-04-05T10:09:22.831Z,11.30
2019-04-05T10:13:31.307Z,11.20
2019-04-05T10:17:39.766Z,12.37
2019-04-05T10:21:48.532Z,10.27
2019-04-05T10:25:56.997Z,10.33
2019-04-05T10:30:11.140Z,12.53
2019-04-05T10:34:19.634Z,12.07
2019-04-05T10:38:28.371Z,12.47
2019-04-05T10:42:37.956Z,11.60
2019-04-05T10:46:46.472Z,14.70
2019-04-05T10:50:54.936Z,12.70
2019-04-05T10:55:03.896Z,14.87
2019-04-05T10:59:12.378Z,15.93
2019-04-05T11:03:20.874Z,15.60
2019-04-05T11:07:29.327Z,19.33
2019-04-05T11:11:37.795Z,16.23
2019-04-05T11:15:46.288Z,16.63
2019-04-05T11:19:54.863Z,16.73
2019-04-05T11:24:03.355Z,17.33
2019-04-05T11:28:12.128Z,16.70
2019-04-05T11:32:20.847Z,15.83
2019-04-05T11:36:29.315Z,17.40
2019-04-05T11:40:38.871Z,17.77
2019-04-05T11:44:53.503Z,18.37
2019-04-05T11:49:03.619Z,16.37
2019-04-05T11:53:12.655Z,15.93
2019-04-05T11:57:21.388Z,18.83
2019-04-05T12:01:31.472Z,21.17
2019-04-05T12:05:39.936Z,18.27
2019-04-05T12:09:48.641Z,22.57
2019-04-05T12:13:57.248Z,18.70
2019-04-05T12:18:06.012Z,17.87
2019-04-05T12:22:14.566Z,20.03
2019-04-05T12:26:23.027Z,19.47
2019-04-05T12:30:31.528Z,20.90
2019-04-05T12:34:40.011Z,23.50
2019-04-05T12:38:48.508Z,21.27
2019-04-05T12:42:57.248Z,21.50
2019-04-05T12:47:05.986Z,22.20
2019-04-05T12:51:15.588Z,23.93
2019-04-05T12:55:25.083Z,21.90
2019-04-05T12:59:33.574Z,23.30
2019-04-05T13:03:42.060Z,24.00
2019-04-05T13:07:50.670Z,21.60
2019-04-05T13:12:00.982Z,23.50
2019-04-05T13:16:10.828Z,22.70
2019-04-05T13:20:19.651Z,23.70
2019-04-05T13:24:28.114Z,22.93
2019-04-05T13:28:36.630Z,23.00
2019-04-05T13:32:45.400Z,22.23
2019-04-05T13:36:53.855Z,24.87
2019-04-05T13:41:02.345Z,23.07
2019-04-05T13:45:11.045Z,21.77
2019-04-05T13:49:19.627Z,19.73
2019-04-05T13:53:28.114Z,19.57
2019-04-05T13:57:38.462Z,18.77
2019-04-05T14:01:50.744Z,19.20
2019-04-05T14:05:57.237Z,21.50
2019-04-05T14:10:10.625Z,22.63
2019-04-05T14:14:18.460Z,23.77
2019-04-05T14:18:26.968Z,21.90
2019-04-05T14:22:35.432Z,20.73
2019-04-05T14:26:43.914Z,20.33
2019-04-05T14:30:52.361Z,18.40
2019-04-05T14:35:00.832Z,16.07
2019-04-05T14:39:10.134Z,16.30
2019-04-05T14:43:21.248Z,15.83
2019-04-05T14:47:29.094Z,17.27
2019-04-05T14:51:37.587Z,16.50
2019-04-05T14:55:46.340Z,17.80
2019-04-05T14:59:54.796Z,17.40
2019-04-05T15:04:03.341Z,18.40
2019-04-05T15:08:11.833Z,18.63
2019-04-05T15:12:20.607Z,17.93
2019-04-05T15:16:29.098Z,16.70
2019-04-05T15:20:37.594Z,15.33
2019-04-05T15:24:47.097Z,15.90
2019-04-05T15:28:56.101Z,18.20
2019-04-05T15:33:04.693Z,17.10
2019-04-05T15:37:15.835Z,16.77
2019-04-05T15:41:23.383Z,16.70
2019-04-05T15:45:31.851Z,14.77
2019-04-05T15:49:40.339Z,15.90
2019-04-05T15:53:49.192Z,15.10
2019-04-05T15:57:58.032Z,14.43
2019-04-05T16:02:06.571Z,15.57
2019-04-05T16:06:15.047Z,13.83
2019-04-05T16:10:23.534Z,13.50
2019-04-05T16:14:32.239Z,16.07
2019-04-05T16:18:40.718Z,13.67
2019-04-05T16:22:49.260Z,14.73
2019-04-05T16:26:57.766Z,13.67
2019-04-05T16:31:06.312Z,13.83
2019-04-05T16:35:14.960Z,15.50
2019-04-05T16:39:23.473Z,15.33
2019-04-05T16:43:32.489Z,13.77
2019-04-05T16:47:41.009Z,14.60
2019-04-05T16:51:49.458Z,15.03
2019-04-05T16:55:58.234Z,14.33
2019-04-05T17:00:15.198Z,14.43
2019-04-05T17:04:23.789Z,15.27
2019-04-05T17:08:32.296Z,16.90
2019-04-05T17:12:40.836Z,15.13
2019-04-05T17:16:49.309Z,15.40
2019-04-05T17:20:57.784Z,14.30
2019-04-05T17:25:07.135Z,15.30
2019-04-05T17:29:15.589Z,16.53
2019-04-05T17:33:24.423Z,16.30
2019-04-05T17:37:33.190Z,17.43
2019-04-05T17:41:41.936Z,19.13
2019-04-05T17:45:50.395Z,15.47
2019-04-05T17:49:59.123Z,17.10
2019-04-05T17:54:07.595Z,18.83
2019-04-05T17:58:17.885Z,22.13
2019-04-05T18:02:27.288Z,23.33
2019-04-05T18:06:35.782Z,25.77
2019-04-05T18:10:44.326Z,28.73
2019-04-05T18:14:53.132Z,24.20
2019-04-05T18:19:01.583Z,30.07
2019-04-05T18:23:10.067Z,32.10
2019-04-05T18:27:18.538Z,28.80
2019-04-05T18:31:27.452Z,27.67
2019-04-05T18:35:35.902Z,22.63
2019-04-05T18:39:44.695Z,25.27
2019-04-05T18:43:53.553Z,23.37
2019-04-05T18:48:02.291Z,20.43
2019-04-05T18:52:10.766Z,20.60
2019-04-05T18:56:19.303Z,21.97
2019-04-05T19:00:28.059Z,21.17
2019-04-05T19:04:36.539Z,21.20
2019-04-05T19:08:45.021Z,21.67
2019-04-05T19:12:53.592Z,27.37
2019-04-05T19:17:02.152Z,31.03
2019-04-05T19:21:10.845Z,29.50
2019-04-05T19:25:19.319Z,26.47
2019-04-05T19:29:27.791Z,28.63
2019-04-05T19:50:17.360Z,24.90
2019-04-05T19:54:26.538Z,23.47
2019-04-05T19:58:35.067Z,23.20
2019-04-05T20:02:43.538Z,23.57
2019-04-05T20:06:58.323Z,23.57
2019-04-05T20:11:02.187Z,22.53
2019-04-05T20:15:10.725Z,24.87
2019-04-05T20:19:19.226Z,24.80
2019-04-05T20:23:27.704Z,28.33
2019-04-05T20:27:36.170Z,27.27
2019-04-05T20:31:44.650Z,29.07
2019-04-05T20:35:53.099Z,27.20
2019-04-05T20:40:01.584Z,27.60
2019-04-05T20:44:10.035Z,26.67
2019-04-05T20:48:18.837Z,26.87
2019-04-05T20:52:27.320Z,25.97
2019-04-05T20:56:35.783Z,25.60
2019-04-05T21:00:44.238Z,28.17
2019-04-05T21:04:52.698Z,26.60
2019-04-05T21:09:01.451Z,27.20
2019-04-05T21:13:09.916Z,24.90
2019-04-05T21:17:18.627Z,29.17
2019-04-05T21:21:27.352Z,30.10
2019-04-05T21:25:36.264Z,27.87
2019-04-05T21:29:44.983Z,28.83
2019-04-05T21:33:53.731Z,28.43
2019-04-05T21:38:02.207Z,29.57
2019-04-05T21:42:10.741Z,28.80
2019-04-05T21:46:19.213Z,27.50
2019-04-05T21:50:27.690Z,30.83
2019-04-05T21:54:46.808Z,31.07
2019-04-05T21:58:46.626Z,29.10
2019-04-05T22:02:55.148Z,27.73
2019-04-05T22:07:03.609Z,29.90
2019-04-05T22:11:12.095Z,28.60
2019-04-05T22:15:20.582Z,29.10
2019-04-05T22:19:29.031Z,30.43
2019-04-05T22:23:37.497Z,29.47
2019-04-05T22:27:45.970Z,28.80
2019-04-05T22:31:54.427Z,29.13
2019-04-05T22:36:02.896Z,25.90
2019-04-05T22:40:11.488Z,27.97
2019-04-05T22:44:19.973Z,29.63
2019-04-05T22:48:28.443Z,26.83
2019-04-05T22:52:36.957Z,30.70
2019-04-05T22:56:45.709Z,28.80
2019-04-05T23:00:54.175Z,30.30
2019-04-05T23:05:02.639Z,31.63
2019-04-05T23:09:11.112Z,28.10
2019-04-05T23:13:19.585Z,30.70
2019-04-05T23:17:28.097Z,29.87
2019-04-05T23:21:36.590Z,31.40
2019-04-05T23:25:45.066Z,29.63
2019-04-05T23:29:53.818Z,29.73
2019-04-05T23:34:02.302Z,30.27
2019-04-05T23:38:10.738Z,30.13
2019-04-05T23:42:19.224Z,33.00
2019-04-05T23:46:27.690Z,31.13
2019-04-05T23:50:36.194Z,30.07
2019-04-05T23:54:44.695Z,32.10
2019-04-05T23:58:53.166Z,33.10
